sensor_id;sensor_type;location;lat;lon;timestamp;pressure;altitude;pressure_sealevel;temperature;humidity
63204;BME280;49297;43.210;27.914;2023-11-21T00:01:37;100961.59;;;5.32;77.42
63204;BME280;49297;43.210;27.914;2023-11-21T00:04:03;100972.81;;;5.34;77.26
63204;BME280;49297;43.210;27.914;2023-11-21T00:06:29;100968.53;;;5.33;77.35
63204;BME280;49297;43.210;27.914;2023-11-21T00:08:56;100981.75;;;5.31;77.78
63204;BME280;49297;43.210;27.914;2023-11-21T00:11:21;100978.38;;;5.29;78.37
63204;BME280;49297;43.210;27.914;2023-11-21T00:13:47;100987.19;;;5.28;78.43
63204;BME280;49297;43.210;27.914;2023-11-21T00:16:13;100987.94;;;5.30;78.88
63204;BME280;49297;43.210;27.914;2023-11-21T00:18:38;100986.34;;;5.28;79.35
63204;BME280;49297;43.210;27.914;2023-11-21T00:21:05;100979.41;;;5.27;79.40
63204;BME280;49297;43.210;27.914;2023-11-21T00:23:30;100981.38;;;5.23;79.26
63204;BME280;49297;43.210;27.914;2023-11-21T00:25:56;100984.66;;;5.27;79.88
63204;BME280;49297;43.210;27.914;2023-11-21T00:28:22;100983.81;;;5.26;79.75
63204;BME280;49297;43.210;27.914;2023-11-21T00:30:48;100988.34;;;5.24;79.97
63204;BME280;49297;43.210;27.914;2023-11-21T00:33:15;100984.19;;;5.20;79.99
63204;BME280;49297;43.210;27.914;2023-11-21T00:35:41;100976.53;;;5.17;79.85
63204;BME280;49297;43.210;27.914;2023-11-21T00:38:06;100975.88;;;5.13;79.69
63204;BME280;49297;43.210;27.914;2023-11-21T00:40:34;100973.44;;;5.10;80.10
63204;BME280;49297;43.210;27.914;2023-11-21T00:42:59;100981.31;;;5.10;79.57
63204;BME280;49297;43.210;27.914;2023-11-21T00:45:26;100984.03;;;5.09;79.90
63204;BME280;49297;43.210;27.914;2023-11-21T00:47:52;100982.63;;;5.03;79.85
63204;BME280;49297;43.210;27.914;2023-11-21T00:50:18;100980.94;;;5.02;80.04
63204;BME280;49297;43.210;27.914;2023-11-21T00:52:44;100985.44;;;5.00;80.02
63204;BME280;49297;43.210;27.914;2023-11-21T00:55:10;100990.41;;;5.05;80.21
63204;BME280;49297;43.210;27.914;2023-11-21T00:57:37;100984.97;;;5.08;80.52
63204;BME280;49297;43.210;27.914;2023-11-21T01:00:04;100981.13;;;5.13;80.02
63204;BME280;49297;43.210;27.914;2023-11-21T01:02:39;100982.44;;;5.21;79.92
63204;BME280;49297;43.210;27.914;2023-11-21T01:05:05;100980.47;;;5.24;79.98
63204;BME280;49297;43.210;27.914;2023-11-21T01:07:34;100977.25;;;5.33;79.31
63204;BME280;49297;43.210;27.914;2023-11-21T01:10:03;100979.56;;;5.38;79.43
63204;BME280;49297;43.210;27.914;2023-11-21T01:12:31;100976.56;;;5.44;79.09
63204;BME280;49297;43.210;27.914;2023-11-21T01:14:57;100976.06;;;5.52;78.37
63204;BME280;49297;43.210;27.914;2023-11-21T01:17:26;100987.31;;;5.54;79.01
63204;BME280;49297;43.210;27.914;2023-11-21T01:19:52;100970.34;;;5.60;78.03
63204;BME280;49297;43.210;27.914;2023-11-21T01:22:18;100977.91;;;5.64;77.55
63204;BME280;49297;43.210;27.914;2023-11-21T01:24:47;100983.97;;;5.65;77.72
63204;BME280;49297;43.210;27.914;2023-11-21T01:27:13;100982.97;;;5.67;77.50
63204;BME280;49297;43.210;27.914;2023-11-21T01:29:40;100985.69;;;5.66;77.46
63204;BME280;49297;43.210;27.914;2023-11-21T01:32:06;100976.00;;;5.66;77.19
63204;BME280;49297;43.210;27.914;2023-11-21T01:34:33;100974.25;;;5.67;77.30
63204;BME280;49297;43.210;27.914;2023-11-21T01:36:59;100962.03;;;5.66;77.35
63204;BME280;49297;43.210;27.914;2023-11-21T01:39:27;100969.63;;;5.70;76.88
63204;BME280;49297;43.210;27.914;2023-11-21T01:41:53;100974.03;;;5.70;77.03
63204;BME280;49297;43.210;27.914;2023-11-21T01:44:19;100965.13;;;5.72;76.73
63204;BME280;49297;43.210;27.914;2023-11-21T01:46:45;100976.47;;;5.73;76.82
63204;BME280;49297;43.210;27.914;2023-11-21T01:49:13;100974.75;;;5.72;76.53
63204;BME280;49297;43.210;27.914;2023-11-21T01:51:42;100966.13;;;5.70;76.39
63204;BME280;49297;43.210;27.914;2023-11-21T01:54:09;100968.03;;;5.68;76.55
63204;BME280;49297;43.210;27.914;2023-11-21T01:56:37;100956.69;;;5.67;76.41
63204;BME280;49297;43.210;27.914;2023-11-21T01:59:03;100955.09;;;5.65;76.21
63204;BME280;49297;43.210;27.914;2023-11-21T02:01:29;100950.16;;;5.60;76.42
63204;BME280;49297;43.210;27.914;2023-11-21T02:03:55;100952.13;;;5.57;76.27
63204;BME280;49297;43.210;27.914;2023-11-21T02:06:21;100954.56;;;5.60;76.63
63204;BME280;49297;43.210;27.914;2023-11-21T02:08:47;100948.63;;;5.56;76.88
63204;BME280;49297;43.210;27.914;2023-11-21T02:11:13;100953.06;;;5.56;76.67
63204;BME280;49297;43.210;27.914;2023-11-21T02:13:40;100945.09;;;5.57;77.01
63204;BME280;49297;43.210;27.914;2023-11-21T02:16:10;100955.78;;;5.54;77.33
63204;BME280;49297;43.210;27.914;2023-11-21T02:18:39;100958.13;;;5.59;77.61
63204;BME280;49297;43.210;27.914;2023-11-21T02:21:06;100955.41;;;5.60;77.51
63204;BME280;49297;43.210;27.914;2023-11-21T02:23:32;100952.69;;;5.62;77.90
63204;BME280;49297;43.210;27.914;2023-11-21T02:25:58;100959.50;;;5.64;77.61
63204;BME280;49297;43.210;27.914;2023-11-21T02:28:24;100955.22;;;5.63;77.58
63204;BME280;49297;43.210;27.914;2023-11-21T02:30:54;100962.97;;;5.65;77.70
63204;BME280;49297;43.210;27.914;2023-11-21T02:33:24;100971.41;;;5.70;77.48
63204;BME280;49297;43.210;27.914;2023-11-21T02:35:50;100967.75;;;5.72;77.41
63204;BME280;49297;43.210;27.914;2023-11-21T02:38:21;100965.13;;;5.72;77.42
63204;BME280;49297;43.210;27.914;2023-11-21T02:43:27;100956.06;;;5.77;77.61
63204;BME280;49297;43.210;27.914;2023-11-21T02:45:53;100969.13;;;5.78;77.25
63204;BME280;49297;43.210;27.914;2023-11-21T02:48:18;100969.75;;;5.82;77.20
63204;BME280;49297;43.210;27.914;2023-11-21T02:50:44;100972.38;;;5.82;77.20
63204;BME280;49297;43.210;27.914;2023-11-21T02:53:10;100971.25;;;5.86;77.73
63204;BME280;49297;43.210;27.914;2023-11-21T02:55:36;100971.13;;;5.87;77.11
63204;BME280;49297;43.210;27.914;2023-11-21T02:58:02;100970.84;;;5.92;77.29
63204;BME280;49297;43.210;27.914;2023-11-21T03:00:31;100974.97;;;5.96;77.48
63204;BME280;49297;43.210;27.914;2023-11-21T03:02:57;100982.34;;;6.04;77.28
63204;BME280;49297;43.210;27.914;2023-11-21T03:05:23;100980.91;;;6.13;76.87
63204;BME280;49297;43.210;27.914;2023-11-21T03:07:49;100981.25;;;6.21;77.14
63204;BME280;49297;43.210;27.914;2023-11-21T03:10:15;100979.78;;;6.29;76.81
63204;BME280;49297;43.210;27.914;2023-11-21T03:12:40;100976.72;;;6.36;76.36
63204;BME280;49297;43.210;27.914;2023-11-21T03:15:07;100977.16;;;6.42;76.33
63204;BME280;49297;43.210;27.914;2023-11-21T03:17:33;100979.59;;;6.45;76.20
63204;BME280;49297;43.210;27.914;2023-11-21T03:20:03;100978.44;;;6.50;75.52
63204;BME280;49297;43.210;27.914;2023-11-21T03:22:29;100980.94;;;6.51;75.57
63204;BME280;49297;43.210;27.914;2023-11-21T03:24:55;100986.00;;;6.54;75.32
63204;BME280;49297;43.210;27.914;2023-11-21T03:27:22;100990.00;;;6.60;75.28
63204;BME280;49297;43.210;27.914;2023-11-21T03:29:48;100983.59;;;6.64;75.08
63204;BME280;49297;43.210;27.914;2023-11-21T03:32:14;101001.69;;;6.69;74.70
63204;BME280;49297;43.210;27.914;2023-11-21T03:34:54;100989.03;;;6.74;74.14
63204;BME280;49297;43.210;27.914;2023-11-21T03:37:21;100988.00;;;6.76;74.83
63204;BME280;49297;43.210;27.914;2023-11-21T03:39:47;100987.91;;;6.78;74.18
63204;BME280;49297;43.210;27.914;2023-11-21T03:42:12;100983.38;;;6.80;73.84
63204;BME280;49297;43.210;27.914;2023-11-21T03:44:39;100983.16;;;6.83;73.63
63204;BME280;49297;43.210;27.914;2023-11-21T03:47:06;100992.41;;;6.89;73.67
63204;BME280;49297;43.210;27.914;2023-11-21T03:49:31;100982.63;;;6.91;73.74
63204;BME280;49297;43.210;27.914;2023-11-21T03:51:57;100978.28;;;6.90;73.70
63204;BME280;49297;43.210;27.914;2023-11-21T03:54:23;100978.19;;;6.91;73.50
63204;BME280;49297;43.210;27.914;2023-11-21T03:56:51;100989.06;;;6.86;73.31
63204;BME280;49297;43.210;27.914;2023-11-21T03:59:17;100978.19;;;6.78;73.25
63204;BME280;49297;43.210;27.914;2023-11-21T04:01:43;100993.38;;;6.75;73.34
63204;BME280;49297;43.210;27.914;2023-11-21T04:04:09;100990.41;;;6.66;73.23
63204;BME280;49297;43.210;27.914;2023-11-21T04:06:34;100993.69;;;6.57;73.55
63204;BME280;49297;43.210;27.914;2023-11-21T04:09:01;100990.13;;;6.45;74.02
63204;BME280;49297;43.210;27.914;2023-11-21T04:11:29;100995.22;;;6.34;74.80
63204;BME280;49297;43.210;27.914;2023-11-21T04:13:55;100985.44;;;6.23;75.15
63204;BME280;49297;43.210;27.914;2023-11-21T04:16:21;100979.88;;;6.15;75.85
63204;BME280;49297;43.210;27.914;2023-11-21T04:18:47;100978.59;;;6.08;76.63
63204;BME280;49297;43.210;27.914;2023-11-21T04:21:14;100977.31;;;6.01;77.35
63204;BME280;49297;43.210;27.914;2023-11-21T04:23:39;100984.81;;;5.93;77.46
63204;BME280;49297;43.210;27.914;2023-11-21T04:26:05;100981.94;;;5.83;78.02
63204;BME280;49297;43.210;27.914;2023-11-21T04:28:32;100988.44;;;5.77;78.63
63204;BME280;49297;43.210;27.914;2023-11-21T04:30:57;100984.63;;;5.68;78.89
63204;BME280;49297;43.210;27.914;2023-11-21T04:33:23;100990.19;;;5.64;78.73
63204;BME280;49297;43.210;27.914;2023-11-21T04:35:49;100996.78;;;5.57;79.19
63204;BME280;49297;43.210;27.914;2023-11-21T04:38:15;100996.97;;;5.53;78.80
63204;BME280;49297;43.210;27.914;2023-11-21T04:40:41;101001.69;;;5.48;79.29
63204;BME280;49297;43.210;27.914;2023-11-21T04:43:08;100996.41;;;5.48;79.39
63204;BME280;49297;43.210;27.914;2023-11-21T04:45:34;101000.19;;;5.44;79.04
63204;BME280;49297;43.210;27.914;2023-11-21T04:47:59;101007.50;;;5.39;79.43
63204;BME280;49297;43.210;27.914;2023-11-21T04:50:25;101008.44;;;5.38;79.49
63204;BME280;49297;43.210;27.914;2023-11-21T04:52:54;100997.50;;;5.31;79.17
63204;BME280;49297;43.210;27.914;2023-11-21T04:55:20;101004.63;;;5.29;79.90
63204;BME280;49297;43.210;27.914;2023-11-21T04:57:45;100996.13;;;5.26;79.92
63204;BME280;49297;43.210;27.914;2023-11-21T05:00:12;100996.38;;;5.21;79.84
63204;BME280;49297;43.210;27.914;2023-11-21T05:02:40;101002.38;;;5.23;80.11
63204;BME280;49297;43.210;27.914;2023-11-21T05:05:07;101004.25;;;5.21;80.05
63204;BME280;49297;43.210;27.914;2023-11-21T05:07:36;100998.47;;;5.16;80.33
63204;BME280;49297;43.210;27.914;2023-11-21T05:10:02;101004.84;;;5.12;80.65
63204;BME280;49297;43.210;27.914;2023-11-21T05:12:31;100998.94;;;5.08;80.62
63204;BME280;49297;43.210;27.914;2023-11-21T05:15:06;101001.84;;;5.04;80.94
63204;BME280;49297;43.210;27.914;2023-11-21T05:17:38;101002.41;;;5.09;80.72
63204;BME280;49297;43.210;27.914;2023-11-21T05:20:08;101004.84;;;5.12;81.04
63204;BME280;49297;43.210;27.914;2023-11-21T05:22:37;101008.78;;;5.19;81.10
63204;BME280;49297;43.210;27.914;2023-11-21T05:25:03;101004.09;;;5.24;81.24
63204;BME280;49297;43.210;27.914;2023-11-21T05:27:29;101011.28;;;5.35;80.73
63204;BME280;49297;43.210;27.914;2023-11-21T05:29:56;101008.16;;;5.43;80.35
63204;BME280;49297;43.210;27.914;2023-11-21T05:32:24;101003.38;;;5.49;79.90
63204;BME280;49297;43.210;27.914;2023-11-21T05:34:50;101002.97;;;5.56;79.49
63204;BME280;49297;43.210;27.914;2023-11-21T05:37:15;100994.91;;;5.59;79.07
63204;BME280;49297;43.210;27.914;2023-11-21T05:39:42;100992.19;;;5.60;78.94
63204;BME280;49297;43.210;27.914;2023-11-21T05:42:09;100988.41;;;5.64;78.27
63204;BME280;49297;43.210;27.914;2023-11-21T05:44:37;100996.00;;;5.69;78.31
63204;BME280;49297;43.210;27.914;2023-11-21T05:47:03;100991.28;;;5.74;78.37
63204;BME280;49297;43.210;27.914;2023-11-21T05:49:31;101005.91;;;5.78;77.74
63204;BME280;49297;43.210;27.914;2023-11-21T05:51:58;101010.75;;;5.84;77.43
63204;BME280;49297;43.210;27.914;2023-11-21T05:54:25;101015.81;;;5.87;77.42
63204;BME280;49297;43.210;27.914;2023-11-21T05:56:51;101016.66;;;5.88;77.05
63204;BME280;49297;43.210;27.914;2023-11-21T05:59:17;101022.88;;;5.87;76.67
63204;BME280;49297;43.210;27.914;2023-11-21T06:01:43;101015.06;;;5.85;76.34
63204;BME280;49297;43.210;27.914;2023-11-21T06:04:09;101023.88;;;5.84;76.05
63204;BME280;49297;43.210;27.914;2023-11-21T06:06:36;101023.97;;;5.83;76.22
63204;BME280;49297;43.210;27.914;2023-11-21T06:09:02;101029.38;;;5.81;76.14
63204;BME280;49297;43.210;27.914;2023-11-21T06:11:28;101035.25;;;5.85;76.40
63204;BME280;49297;43.210;27.914;2023-11-21T06:13:55;101044.63;;;5.89;76.36
63204;BME280;49297;43.210;27.914;2023-11-21T06:16:21;101046.31;;;5.90;76.70
63204;BME280;49297;43.210;27.914;2023-11-21T06:18:47;101043.38;;;5.95;76.44
63204;BME280;49297;43.210;27.914;2023-11-21T06:21:13;101042.56;;;5.94;76.56
63204;BME280;49297;43.210;27.914;2023-11-21T06:23:39;101055.63;;;5.96;76.16
63204;BME280;49297;43.210;27.914;2023-11-21T06:26:05;101055.69;;;5.94;76.32
63204;BME280;49297;43.210;27.914;2023-11-21T06:28:32;101056.38;;;5.98;76.58
63204;BME280;49297;43.210;27.914;2023-11-21T06:30:58;101050.91;;;6.01;76.48
63204;BME280;49297;43.210;27.914;2023-11-21T06:33:24;101059.31;;;6.06;76.45
63204;BME280;49297;43.210;27.914;2023-11-21T06:35:53;101052.19;;;6.08;76.29
63204;BME280;49297;43.210;27.914;2023-11-21T06:38:18;101044.09;;;6.11;76.17
63204;BME280;49297;43.210;27.914;2023-11-21T06:40:45;101043.06;;;6.14;75.85
63204;BME280;49297;43.210;27.914;2023-11-21T06:43:11;101044.63;;;6.16;75.75
63204;BME280;49297;43.210;27.914;2023-11-21T06:45:38;101039.91;;;6.21;75.90
63204;BME280;49297;43.210;27.914;2023-11-21T06:48:04;101039.53;;;6.27;76.05
63204;BME280;49297;43.210;27.914;2023-11-21T06:50:29;101040.03;;;6.33;76.08
63204;BME280;49297;43.210;27.914;2023-11-21T06:52:55;101040.38;;;6.41;76.04
63204;BME280;49297;43.210;27.914;2023-11-21T06:55:21;101038.09;;;6.49;76.05
63204;BME280;49297;43.210;27.914;2023-11-21T06:57:46;101035.13;;;6.54;75.96
63204;BME280;49297;43.210;27.914;2023-11-21T07:00:13;101041.75;;;6.59;75.88
63204;BME280;49297;43.210;27.914;2023-11-21T07:02:41;101030.84;;;6.65;75.84
63204;BME280;49297;43.210;27.914;2023-11-21T07:05:07;101038.19;;;6.73;75.79
63204;BME280;49297;43.210;27.914;2023-11-21T07:07:32;101033.56;;;6.77;76.21
63204;BME280;49297;43.210;27.914;2023-11-21T07:10:01;101029.66;;;6.82;76.07
63204;BME280;49297;43.210;27.914;2023-11-21T07:12:30;101031.56;;;6.93;76.22
63204;BME280;49297;43.210;27.914;2023-11-21T07:14:57;101029.16;;;7.03;76.12
63204;BME280;49297;43.210;27.914;2023-11-21T07:17:23;101024.94;;;7.13;75.54
63204;BME280;49297;43.210;27.914;2023-11-21T07:19:49;101027.63;;;7.24;76.22
63204;BME280;49297;43.210;27.914;2023-11-21T07:22:16;101024.03;;;7.38;75.58
63204;BME280;49297;43.210;27.914;2023-11-21T07:24:48;101013.75;;;7.47;75.49
63204;BME280;49297;43.210;27.914;2023-11-21T07:27:18;101022.81;;;7.55;74.59
63204;BME280;49297;43.210;27.914;2023-11-21T07:29:44;101020.38;;;7.65;75.37
63204;BME280;49297;43.210;27.914;2023-11-21T07:32:10;101025.78;;;7.75;74.33
63204;BME280;49297;43.210;27.914;2023-11-21T07:34:38;101028.38;;;7.88;74.37
63204;BME280;49297;43.210;27.914;2023-11-21T07:37:03;101023.28;;;7.97;73.76
63204;BME280;49297;43.210;27.914;2023-11-21T07:39:29;101030.28;;;8.10;73.72
63204;BME280;49297;43.210;27.914;2023-11-21T07:41:55;101029.38;;;8.22;73.01
63204;BME280;49297;43.210;27.914;2023-11-21T07:44:21;101019.69;;;8.34;72.77
63204;BME280;49297;43.210;27.914;2023-11-21T07:46:48;101024.94;;;8.47;73.31
63204;BME280;49297;43.210;27.914;2023-11-21T07:49:15;101026.59;;;8.59;72.48
63204;BME280;49297;43.210;27.914;2023-11-21T07:51:43;101034.44;;;8.72;72.51
63204;BME280;49297;43.210;27.914;2023-11-21T07:54:09;101037.09;;;8.83;71.71
63204;BME280;49297;43.210;27.914;2023-11-21T07:56:35;101042.38;;;8.94;71.59
63204;BME280;49297;43.210;27.914;2023-11-21T07:59:01;101038.19;;;9.03;70.83
63204;BME280;49297;43.210;27.914;2023-11-21T08:01:27;101040.09;;;9.12;69.92
63204;BME280;49297;43.210;27.914;2023-11-21T08:03:54;101032.41;;;9.21;69.25
63204;BME280;49297;43.210;27.914;2023-11-21T08:06:23;101034.34;;;9.30;68.51
63204;BME280;49297;43.210;27.914;2023-11-21T08:08:50;101030.84;;;9.41;68.00
63204;BME280;49297;43.210;27.914;2023-11-21T08:11:16;101030.34;;;9.58;67.64
63204;BME280;49297;43.210;27.914;2023-11-21T08:13:42;101025.59;;;9.73;67.16
63204;BME280;49297;43.210;27.914;2023-11-21T08:16:08;101018.47;;;9.85;66.34
63204;BME280;49297;43.210;27.914;2023-11-21T08:18:33;101013.00;;;9.98;66.12
63204;BME280;49297;43.210;27.914;2023-11-21T08:21:00;101015.63;;;10.09;66.45
63204;BME280;49297;43.210;27.914;2023-11-21T08:23:26;101016.28;;;10.22;66.10
63204;BME280;49297;43.210;27.914;2023-11-21T08:25:52;101016.13;;;10.35;65.78
63204;BME280;49297;43.210;27.914;2023-11-21T08:28:19;101025.22;;;10.42;65.96
63204;BME280;49297;43.210;27.914;2023-11-21T08:30:45;101028.19;;;10.49;65.92
63204;BME280;49297;43.210;27.914;2023-11-21T08:33:11;101028.06;;;10.51;65.92
63204;BME280;49297;43.210;27.914;2023-11-21T08:35:37;101029.09;;;10.59;65.19
63204;BME280;49297;43.210;27.914;2023-11-21T08:38:04;101027.03;;;10.63;65.32
63204;BME280;49297;43.210;27.914;2023-11-21T08:40:30;101023.16;;;10.67;64.92
63204;BME280;49297;43.210;27.914;2023-11-21T08:42:56;101016.63;;;10.71;63.93
63204;BME280;49297;43.210;27.914;2023-11-21T08:45:25;101018.88;;;10.76;63.38
63204;BME280;49297;43.210;27.914;2023-11-21T08:47:51;101028.22;;;10.80;64.00
63204;BME280;49297;43.210;27.914;2023-11-21T08:50:17;101023.38;;;10.85;63.96
63204;BME280;49297;43.210;27.914;2023-11-21T08:52:44;101026.34;;;10.92;64.26
63204;BME280;49297;43.210;27.914;2023-11-21T08:55:12;101019.56;;;10.99;64.03
63204;BME280;49297;43.210;27.914;2023-11-21T08:57:39;101017.22;;;11.05;63.90
63204;BME280;49297;43.210;27.914;2023-11-21T09:00:07;101021.53;;;11.07;63.91
63204;BME280;49297;43.210;27.914;2023-11-21T09:02:35;101016.22;;;11.07;63.65
63204;BME280;49297;43.210;27.914;2023-11-21T09:05:02;101020.16;;;11.12;63.71
63204;BME280;49297;43.210;27.914;2023-11-21T09:07:29;101009.03;;;11.18;63.59
63204;BME280;49297;43.210;27.914;2023-11-21T09:09:55;101009.47;;;11.23;63.79
63204;BME280;49297;43.210;27.914;2023-11-21T09:12:20;100995.78;;;11.28;63.52
63204;BME280;49297;43.210;27.914;2023-11-21T09:14:47;100998.34;;;11.39;63.87
63204;BME280;49297;43.210;27.914;2023-11-21T09:17:13;100986.94;;;11.49;63.42
63204;BME280;49297;43.210;27.914;2023-11-21T09:19:40;100978.97;;;11.58;63.08
63204;BME280;49297;43.210;27.914;2023-11-21T09:22:06;100981.91;;;11.65;61.98
63204;BME280;49297;43.210;27.914;2023-11-21T09:24:33;100983.72;;;11.74;59.27
63204;BME280;49297;43.210;27.914;2023-11-21T09:26:59;100974.09;;;11.83;59.01
63204;BME280;49297;43.210;27.914;2023-11-21T09:29:26;100979.31;;;11.94;57.96
63204;BME280;49297;43.210;27.914;2023-11-21T09:31:52;100967.00;;;12.03;58.51
63204;BME280;49297;43.210;27.914;2023-11-21T09:34:19;100965.50;;;12.10;57.71
63204;BME280;49297;43.210;27.914;2023-11-21T09:36:46;100963.22;;;12.15;57.15
63204;BME280;49297;43.210;27.914;2023-11-21T09:39:12;100960.44;;;12.17;57.57
63204;BME280;49297;43.210;27.914;2023-11-21T09:41:50;100952.88;;;12.22;57.36
63204;BME280;49297;43.210;27.914;2023-11-21T09:44:43;100957.78;;;12.27;56.31
63204;BME280;49297;43.210;27.914;2023-11-21T09:47:14;100963.63;;;12.30;56.04
63204;BME280;49297;43.210;27.914;2023-11-21T09:49:46;100950.22;;;12.32;55.68
63204;BME280;49297;43.210;27.914;2023-11-21T09:52:18;100953.44;;;12.35;56.09
63204;BME280;49297;43.210;27.914;2023-11-21T09:54:45;100948.53;;;12.41;55.86
63204;BME280;49297;43.210;27.914;2023-11-21T09:57:11;100940.81;;;12.47;55.75
63204;BME280;49297;43.210;27.914;2023-11-21T09:59:37;100939.56;;;12.51;54.86
63204;BME280;49297;43.210;27.914;2023-11-21T10:02:03;100944.41;;;12.56;54.43
63204;BME280;49297;43.210;27.914;2023-11-21T10:04:31;100934.59;;;12.66;54.29
63204;BME280;49297;43.210;27.914;2023-11-21T10:06:57;100938.91;;;12.67;53.87
63204;BME280;49297;43.210;27.914;2023-11-21T10:09:24;100935.28;;;12.68;53.85
63204;BME280;49297;43.210;27.914;2023-11-21T10:11:52;100926.19;;;12.71;53.71
63204;BME280;49297;43.210;27.914;2023-11-21T10:14:20;100938.06;;;12.76;54.13
63204;BME280;49297;43.210;27.914;2023-11-21T10:16:50;100940.13;;;12.83;54.06
63204;BME280;49297;43.210;27.914;2023-11-21T10:19:16;100931.25;;;12.92;54.25
63204;BME280;49297;43.210;27.914;2023-11-21T10:21:43;100928.16;;;12.97;54.21
63204;BME280;49297;43.210;27.914;2023-11-21T10:24:09;100928.56;;;13.02;54.30
63204;BME280;49297;43.210;27.914;2023-11-21T10:26:36;100923.63;;;13.07;53.97
63204;BME280;49297;43.210;27.914;2023-11-21T10:29:02;100923.31;;;13.10;54.12
63204;BME280;49297;43.210;27.914;2023-11-21T10:31:32;100918.72;;;13.12;54.25
63204;BME280;49297;43.210;27.914;2023-11-21T10:34:17;100923.03;;;13.13;53.81
63204;BME280;49297;43.210;27.914;2023-11-21T10:36:44;100925.53;;;13.14;54.33
63204;BME280;49297;43.210;27.914;2023-11-21T10:39:17;100921.31;;;13.22;54.34
63204;BME280;49297;43.210;27.914;2023-11-21T10:41:49;100919.56;;;13.30;54.59
63204;BME280;49297;43.210;27.914;2023-11-21T10:44:16;100922.03;;;13.42;53.94
63204;BME280;49297;43.210;27.914;2023-11-21T10:46:50;100916.94;;;13.48;53.49
63204;BME280;49297;43.210;27.914;2023-11-21T10:49:25;100906.94;;;13.60;53.38
63204;BME280;49297;43.210;27.914;2023-11-21T10:51:55;100903.88;;;13.73;52.94
63204;BME280;49297;43.210;27.914;2023-11-21T10:54:25;100905.97;;;13.87;52.42
63204;BME280;49297;43.210;27.914;2023-11-21T10:57:00;100910.84;;;13.92;52.02
63204;BME280;49297;43.210;27.914;2023-11-21T10:59:31;100904.00;;;13.89;51.57
63204;BME280;49297;43.210;27.914;2023-11-21T11:01:58;100911.97;;;13.89;51.05
63204;BME280;49297;43.210;27.914;2023-11-21T11:04:27;100893.50;;;13.88;51.24
63204;BME280;49297;43.210;27.914;2023-11-21T11:07:03;100894.72;;;13.94;51.27
63204;BME280;49297;43.210;27.914;2023-11-21T11:09:31;100892.56;;;13.97;51.33
63204;BME280;49297;43.210;27.914;2023-11-21T11:12:02;100894.25;;;13.98;51.18
63204;BME280;49297;43.210;27.914;2023-11-21T11:14:28;100891.75;;;13.97;51.04
63204;BME280;49297;43.210;27.914;2023-11-21T11:16:54;100894.09;;;14.00;51.37
63204;BME280;49297;43.210;27.914;2023-11-21T11:19:25;100890.94;;;14.04;51.54
63204;BME280;49297;43.210;27.914;2023-11-21T11:25:12;100881.72;;;14.17;51.33
63204;BME280;49297;43.210;27.914;2023-11-21T11:28:18;100872.97;;;14.24;50.86
63204;BME280;49297;43.210;27.914;2023-11-21T11:36:06;100861.38;;;14.42;49.96
63204;BME280;49297;43.210;27.914;2023-11-21T11:38:36;100856.41;;;14.47;48.80
63204;BME280;49297;43.210;27.914;2023-11-21T11:41:04;100859.59;;;14.51;48.84
63204;BME280;49297;43.210;27.914;2023-11-21T11:43:30;100863.47;;;14.56;48.94
63204;BME280;49297;43.210;27.914;2023-11-21T11:45:59;100860.03;;;14.64;48.70
63204;BME280;49297;43.210;27.914;2023-11-21T11:48:29;100856.41;;;14.73;48.75
63204;BME280;49297;43.210;27.914;2023-11-21T11:51:11;100855.41;;;14.82;49.65
63204;BME280;49297;43.210;27.914;2023-11-21T11:53:45;100860.94;;;14.89;50.41
63204;BME280;49297;43.210;27.914;2023-11-21T11:56:29;100861.63;;;14.91;52.04
63204;BME280;49297;43.210;27.914;2023-11-21T11:59:04;100858.94;;;14.91;51.61
63204;BME280;49297;43.210;27.914;2023-11-21T12:01:33;100857.47;;;14.97;51.90
63204;BME280;49297;43.210;27.914;2023-11-21T12:06:43;100848.47;;;15.06;52.43
63204;BME280;49297;43.210;27.914;2023-11-21T12:09:18;100849.81;;;15.02;52.57
63204;BME280;49297;43.210;27.914;2023-11-21T12:11:45;100854.78;;;14.97;52.64
63204;BME280;49297;43.210;27.914;2023-11-21T12:14:13;100860.28;;;14.95;52.91
63204;BME280;49297;43.210;27.914;2023-11-21T12:16:39;100867.78;;;14.92;52.93
63204;BME280;49297;43.210;27.914;2023-11-21T12:19:05;100867.91;;;14.82;53.00
63204;BME280;49297;43.210;27.914;2023-11-21T12:21:31;100867.53;;;14.69;53.46
63204;BME280;49297;43.210;27.914;2023-11-21T12:23:58;100866.44;;;14.53;53.65
63204;BME280;49297;43.210;27.914;2023-11-21T12:26:26;100856.69;;;14.36;53.80
63204;BME280;49297;43.210;27.914;2023-11-21T12:28:53;100856.78;;;14.18;53.88
63204;BME280;49297;43.210;27.914;2023-11-21T12:31:22;100846.84;;;14.02;54.40
63204;BME280;49297;43.210;27.914;2023-11-21T12:33:48;100843.47;;;13.92;54.55
63204;BME280;49297;43.210;27.914;2023-11-21T12:36:14;100852.22;;;13.84;54.92
63204;BME280;49297;43.210;27.914;2023-11-21T12:38:40;100847.69;;;13.76;55.01
63204;BME280;49297;43.210;27.914;2023-11-21T12:41:07;100844.81;;;13.69;55.00
63204;BME280;49297;43.210;27.914;2023-11-21T12:43:34;100854.41;;;13.62;55.50
63204;BME280;49297;43.210;27.914;2023-11-21T12:46:10;100854.19;;;13.56;55.82
63204;BME280;49297;43.210;27.914;2023-11-21T12:48:42;100852.28;;;13.48;55.91
63204;BME280;49297;43.210;27.914;2023-11-21T12:51:10;100841.88;;;13.37;56.04
63204;BME280;49297;43.210;27.914;2023-11-21T12:53:44;100841.78;;;13.28;56.45
63204;BME280;49297;43.210;27.914;2023-11-21T12:56:11;100847.84;;;13.21;56.16
63204;BME280;49297;43.210;27.914;2023-11-21T12:58:39;100847.47;;;13.16;56.97
63204;BME280;49297;43.210;27.914;2023-11-21T13:01:07;100843.56;;;13.10;56.80